Time;durP1;ratioP1;P1;durP2;ratioP2;P2;SDS_P1;SDS_P2;PMS_P1;PMS_P2;Temp;Humidity;BMP_temperature;BMP_pressure;BME280_temperature;BME280_humidity;BME280_pressure;Samples;Min_cycle;Max_cycle;Signal;HPM_P1;HPM_P2
2024/01/29 00:02:20;;;;;;;1999.90;999.90;;;10.30;99.90;;;;;;5075760;28;20045;-72
2024/01/29 00:04:46;;;;;;;1999.90;999.90;;;10.40;99.90;;;;;;5075799;28;20029;-74
2024/01/29 00:07:11;;;;;;;1999.90;999.90;;;10.30;99.90;;;;;;5075271;28;20458;-74
2024/01/29 00:09:37;;;;;;;1999.90;999.90;;;10.40;99.90;;;;;;5075846;28;20024;-74
2024/01/29 00:12:03;;;;;;;1999.90;999.90;;;10.40;99.90;;;;;;5075810;28;20434;-74
2024/01/29 00:14:28;;;;;;;1999.90;999.90;;;10.30;99.90;;;;;;5075380;28;20029;-74
2024/01/29 00:16:54;;;;;;;1999.90;999.90;;;10.40;99.90;;;;;;5075765;28;20028;-74
2024/01/29 00:19:20;;;;;;;1999.90;999.90;;;10.30;99.90;;;;;;5075803;28;20028;-74
2024/01/29 00:21:45;;;;;;;1999.90;999.90;;;10.30;99.90;;;;;;5075607;28;20510;-74
2024/01/29 00:24:11;;;;;;;1999.90;999.90;;;10.40;99.90;;;;;;5075575;28;20032;-74
2024/01/29 00:26:39;;;;;;;1999.90;999.90;;;10.40;99.90;;;;;;5075473;28;20029;-74
2024/01/29 00:29:05;;;;;;;1999.90;999.90;;;10.50;99.90;;;;;;5075787;28;20027;-74
2024/01/29 00:31:31;;;;;;;1999.90;999.90;;;10.50;99.90;;;;;;5075733;28;20107;-74
2024/01/29 00:33:57;;;;;;;1999.90;999.90;;;10.50;99.90;;;;;;5075437;28;20086;-74
2024/01/29 00:36:22;;;;;;;1999.90;999.90;;;10.50;99.90;;;;;;5075325;28;20032;-74
2024/01/29 00:38:48;;;;;;;1999.90;999.90;;;10.40;99.90;;;;;;5075554;28;20031;-74
2024/01/29 00:41:13;;;;;;;1999.90;999.90;;;10.40;99.90;;;;;;5075314;28;20074;-74
2024/01/29 00:43:39;;;;;;;1999.90;999.90;;;10.40;99.90;;;;;;5075847;28;20020;-74
2024/01/29 00:46:05;;;;;;;1999.90;999.90;;;10.40;99.90;;;;;;5075401;28;20031;-74
2024/01/29 00:48:30;;;;;;;1999.90;999.90;;;10.40;99.90;;;;;;5075140;28;20017;-74
2024/01/29 00:50:56;;;;;;;1999.90;999.90;;;10.40;99.90;;;;;;5075282;28;20368;-74
2024/01/29 00:53:22;;;;;;;1999.90;999.90;;;10.40;99.90;;;;;;5075304;28;20445;-74
2024/01/29 00:55:48;;;;;;;1999.90;999.90;;;10.40;99.90;;;;;;5075265;28;20483;-74
2024/01/29 00:58:14;;;;;;;1999.90;999.90;;;10.40;99.90;;;;;;5075178;28;20050;-74
2024/01/29 01:00:41;;;;;;;1999.90;999.90;;;10.50;99.90;;;;;;5074278;28;20040;-74
2024/01/29 01:03:08;;;;;;;1999.90;999.90;;;10.50;99.90;;;;;;5074987;28;20032;-74
2024/01/29 01:05:34;;;;;;;1999.90;999.90;;;10.50;99.90;;;;;;5073785;28;20064;-74
2024/01/29 01:08:00;;;;;;;1999.90;999.90;;;10.60;99.90;;;;;;5075180;28;20467;-74
2024/01/29 01:10:26;;;;;;;1999.90;999.90;;;10.50;99.90;;;;;;5074629;28;20100;-74
2024/01/29 01:12:52;;;;;;;1999.90;999.90;;;10.60;99.90;;;;;;5075150;28;20203;-74
2024/01/29 01:15:18;;;;;;;1999.90;999.90;;;10.50;99.90;;;;;;5075037;28;20024;-74
2024/01/29 01:17:45;;;;;;;1999.90;999.90;;;10.50;99.90;;;;;;5074995;28;20032;-74
2024/01/29 01:20:11;;;;;;;1999.90;999.90;;;10.50;99.90;;;;;;5075071;28;20042;-75
2024/01/29 01:22:37;;;;;;;1999.90;999.90;;;10.50;99.90;;;;;;5074470;28;20047;-72
2024/01/29 01:25:03;;;;;;;1999.90;999.90;;;10.50;99.90;;;;;;5075152;28;20021;-74
2024/01/29 01:27:29;;;;;;;1999.90;999.90;;;10.50;99.90;;;;;;5074612;28;20060;-75
2024/01/29 01:29:54;;;;;;;1999.90;999.90;;;10.50;99.90;;;;;;5074633;28;20024;-75
2024/01/29 01:32:20;;;;;;;1999.90;999.90;;;10.50;99.90;;;;;;5074194;28;20064;-74
2024/01/29 01:34:46;;;;;;;1999.90;999.90;;;10.60;99.90;;;;;;5074374;28;20581;-75
2024/01/29 01:37:12;;;;;;;1999.90;999.90;;;10.60;99.90;;;;;;5074480;28;20063;-74
2024/01/29 01:39:37;;;;;;;1999.90;999.90;;;10.60;99.90;;;;;;5074587;28;20502;-74
2024/01/29 01:42:04;;;;;;;1999.90;999.90;;;10.50;99.90;;;;;;5073993;28;20027;-74
2024/01/29 01:44:30;;;;;;;1999.90;999.90;;;10.50;99.90;;;;;;5074210;28;20016;-75
2024/01/29 01:46:56;;;;;;;1999.90;999.90;;;10.50;99.90;;;;;;5074328;28;20044;-74
2024/01/29 01:49:22;;;;;;;1999.90;999.90;;;10.50;99.90;;;;;;5074138;28;20464;-75
2024/01/29 01:51:50;;;;;;;1999.90;999.90;;;10.50;99.90;;;;;;5074007;28;20114;-74
2024/01/29 01:54:16;;;;;;;1999.90;999.90;;;10.40;99.90;;;;;;5074121;28;20102;-74
2024/01/29 01:56:42;;;;;;;1999.90;999.90;;;10.50;99.90;;;;;;5073770;28;20431;-74
2024/01/29 01:59:11;;;;;;;1999.90;999.90;;;10.40;99.90;;;;;;5074194;28;20104;-74
2024/01/29 02:01:38;;;;;;;1999.90;999.90;;;10.40;99.90;;;;;;5073683;28;20556;-74
2024/01/29 02:04:05;;;;;;;1999.90;999.90;;;10.40;99.90;;;;;;5073524;28;20099;-74
2024/01/29 02:06:31;;;;;;;1999.90;999.90;;;10.40;99.90;;;;;;5073483;28;20038;-74
2024/01/29 02:08:56;;;;;;;1999.90;999.90;;;10.50;99.90;;;;;;5055543;28;20036;-74
2024/01/29 02:11:23;;;;;;;1999.90;999.90;;;10.40;99.90;;;;;;5073672;28;20024;-74
2024/01/29 02:13:49;;;;;;;1999.90;999.90;;;10.40;99.90;;;;;;5073662;28;20424;-74
2024/01/29 02:16:15;;;;;;;1999.90;999.90;;;10.40;99.90;;;;;;5073697;28;20024;-74
2024/01/29 02:18:41;;;;;;;1999.90;999.90;;;10.40;99.90;;;;;;5073292;28;20028;-74
2024/01/29 02:21:06;;;;;;;1999.90;999.90;;;10.30;99.90;;;;;;5073294;28;20019;-74
2024/01/29 02:23:32;;;;;;;1999.90;999.90;;;10.40;99.90;;;;;;5073315;28;20045;-74
2024/01/29 02:25:58;;;;;;;1999.90;999.90;;;10.30;99.90;;;;;;5073499;28;20025;-74
2024/01/29 02:28:25;;;;;;;1999.90;999.90;;;10.30;99.90;;;;;;5072986;28;20506;-74
2024/01/29 02:30:51;;;;;;;1999.90;999.90;;;10.40;99.90;;;;;;5073551;28;20047;-74
2024/01/29 02:33:17;;;;;;;1999.90;999.90;;;10.30;99.90;;;;;;5072881;28;20487;-74
2024/01/29 02:35:45;;;;;;;1999.90;999.90;;;10.30;99.90;;;;;;5073399;28;20032;-74
2024/01/29 02:38:11;;;;;;;1999.90;999.90;;;10.20;99.90;;;;;;5073098;28;20055;-74
2024/01/29 02:40:37;;;;;;;1999.90;999.90;;;10.20;99.90;;;;;;5072915;28;20070;-74
2024/01/29 02:43:03;;;;;;;1999.90;999.90;;;10.20;99.90;;;;;;5073157;28;20033;-74
2024/01/29 02:45:28;;;;;;;1999.90;999.90;;;10.20;99.90;;;;;;5073049;28;20012;-74
2024/01/29 02:47:54;;;;;;;1999.90;999.90;;;10.20;99.90;;;;;;5073000;28;20445;-74
2024/01/29 02:50:20;;;;;;;1999.90;999.90;;;10.20;99.90;;;;;;5072837;28;20059;-74
2024/01/29 02:52:46;;;;;;;1999.90;999.90;;;10.20;99.90;;;;;;5054891;28;20043;-74
2024/01/29 02:55:12;;;;;;;1999.90;999.90;;;10.20;99.90;;;;;;5072967;28;20395;-74
2024/01/29 02:57:37;;;;;;;1999.90;999.90;;;10.20;99.90;;;;;;5072884;28;20028;-74
2024/01/29 03:00:04;;;;;;;1999.90;999.90;;;10.20;99.90;;;;;;5073011;28;20515;-74
2024/01/29 03:02:30;;;;;;;1999.90;999.90;;;10.20;99.90;;;;;;5072295;28;20027;-74
2024/01/29 03:04:55;;;;;;;1999.90;999.90;;;10.20;99.90;;;;;;5072655;28;20407;-75
2024/01/29 03:07:21;;;;;;;1999.90;999.90;;;10.20;99.90;;;;;;5072973;28;20039;-74
2024/01/29 03:09:47;;;;;;;1999.90;999.90;;;10.30;99.90;;;;;;5072552;28;20027;-74
2024/01/29 03:12:12;;;;;;;1999.90;999.90;;;10.30;99.90;;;;;;5072985;28;20037;-74
2024/01/29 03:14:38;;;;;;;1999.90;999.90;;;10.30;99.90;;;;;;5072904;28;20027;-74
2024/01/29 03:17:04;;;;;;;1999.90;999.90;;;10.30;99.90;;;;;;5071865;28;20029;-74
2024/01/29 03:19:30;;;;;;;1999.90;999.90;;;10.30;99.90;;;;;;5072706;28;20081;-74
2024/01/29 03:21:56;;;;;;;1999.90;999.90;;;10.30;99.90;;;;;;5072360;28;20472;-72
2024/01/29 03:24:21;;;;;;;1999.90;999.90;;;10.30;99.90;;;;;;5072884;28;20104;-74
2024/01/29 03:26:47;;;;;;;1999.90;999.90;;;10.30;99.90;;;;;;5073019;28;20020;-74
2024/01/29 03:29:12;;;;;;;1999.90;999.90;;;10.40;99.90;;;;;;5078215;28;20368;-74
2024/01/29 03:31:38;;;;;;;1999.90;999.90;;;10.30;99.90;;;;;;5079421;28;20020;-74
2024/01/29 03:34:04;;;;;;;1999.90;999.90;;;10.20;99.90;;;;;;5078539;28;20086;-74
2024/01/29 03:36:29;;;;;;;1999.90;999.90;;;10.20;99.90;;;;;;5079255;28;20107;-74
2024/01/29 03:38:55;;;;;;;1999.90;999.90;;;10.20;99.90;;;;;;5079338;28;20032;-74
2024/01/29 03:41:20;;;;;;;1999.90;999.90;;;10.20;99.90;;;;;;5079029;28;20472;-74
2024/01/29 03:43:46;;;;;;;1999.90;999.90;;;10.30;99.90;;;;;;5078795;28;20028;-74
2024/01/29 03:46:11;;;;;;;1999.90;999.90;;;10.30;99.90;;;;;;5079042;28;20024;-74
2024/01/29 03:48:37;;;;;;;1999.90;999.90;;;10.20;99.90;;;;;;5078970;28;20487;-74
2024/01/29 03:51:03;;;;;;;1999.90;999.90;;;10.20;99.90;;;;;;5079002;28;20129;-74
2024/01/29 03:53:28;;;;;;;1999.90;999.90;;;10.20;99.90;;;;;;5079124;28;20020;-74
2024/01/29 03:55:55;;;;;;;1999.90;999.90;;;10.20;99.90;;;;;;5079564;28;20368;-74
2024/01/29 03:58:20;;;;;;;1999.90;999.90;;;10.30;99.90;;;;;;5079024;28;20035;-74
2024/01/29 04:00:46;;;;;;;1999.90;999.90;;;10.30;99.90;;;;;;5060386;28;20029;-75
2024/01/29 04:03:12;;;;;;;1999.90;999.90;;;10.30;99.90;;;;;;5078956;28;20028;-74
2024/01/29 04:05:37;;;;;;;1999.90;999.90;;;10.30;99.90;;;;;;5078656;28;20124;-74
2024/01/29 04:08:03;;;;;;;1999.90;999.90;;;10.40;99.90;;;;;;5079302;28;20029;-74
2024/01/29 04:10:29;;;;;;;1999.90;999.90;;;10.40;99.90;;;;;;5078359;28;20426;-75
2024/01/29 04:12:55;;;;;;;1999.90;999.90;;;10.40;99.90;;;;;;5078775;28;20024;-75
2024/01/29 04:15:20;;;;;;;1999.90;999.90;;;10.50;99.90;;;;;;5079086;28;20020;-74
2024/01/29 04:17:47;;;;;;;1999.90;999.90;;;10.50;99.90;;;;;;5078869;28;20469;-75
2024/01/29 04:20:13;;;;;;;1999.90;999.90;;;10.60;99.90;;;;;;5078917;28;20032;-74
2024/01/29 04:22:38;;;;;;;1999.90;999.90;;;10.50;99.90;;;;;;5078427;28;20029;-74
2024/01/29 04:25:06;;;;;;;1999.90;999.90;;;10.60;99.90;;;;;;5079021;28;20032;-75
2024/01/29 04:27:32;;;;;;;1999.90;999.90;;;10.60;99.90;;;;;;5078822;28;20024;-74
2024/01/29 04:29:57;;;;;;;1999.90;999.90;;;10.60;99.90;;;;;;5078594;28;20067;-74
2024/01/29 04:32:23;;;;;;;1999.90;999.90;;;10.70;99.90;;;;;;5077745;28;20027;-74
2024/01/29 04:34:48;;;;;;;1999.90;999.90;;;10.60;99.90;;;;;;5078997;28;20020;-72
2024/01/29 04:37:14;;;;;;;1999.90;999.90;;;10.60;99.90;;;;;;5078604;28;20032;-74
2024/01/29 04:39:40;;;;;;;1999.90;999.90;;;10.60;99.90;;;;;;5075733;28;20021;-74
2024/01/29 04:42:06;;;;;;;1999.90;999.90;;;10.60;99.90;;;;;;5057401;28;20445;-74
2024/01/29 04:44:32;;;;;;;1999.90;999.90;;;10.60;99.90;;;;;;5075311;28;20256;-74
2024/01/29 04:46:58;;;;;;;1999.90;999.90;;;10.70;99.90;;;;;;5075593;28;20096;-74
2024/01/29 04:49:24;;;;;;;1999.90;999.90;;;10.70;99.90;;;;;;5074970;28;20024;-74
2024/01/29 04:51:50;;;;;;;1999.90;999.90;;;10.70;99.90;;;;;;5075728;28;20040;-74
2024/01/29 04:54:16;;;;;;;1999.90;999.90;;;10.70;99.90;;;;;;5057240;28;20051;-74
2024/01/29 04:56:41;;;;;;;1999.90;999.90;;;10.70;99.90;;;;;;5075297;28;20438;-74
2024/01/29 04:59:07;;;;;;;1999.90;999.90;;;10.70;99.90;;;;;;5075273;28;20027;-74
2024/01/29 05:01:33;;;;;;;1999.90;999.90;;;10.70;99.90;;;;;;5074611;28;20032;-75
2024/01/29 05:03:58;;;;;;;1999.90;999.90;;;10.70;99.90;;;;;;5074840;28;20495;-75
2024/01/29 05:06:24;;;;;;;1999.90;999.90;;;10.70;99.90;;;;;;5074281;28;20067;-74
2024/01/29 05:08:50;;;;;;;1999.90;999.90;;;10.70;99.90;;;;;;5074760;28;20437;-74
2024/01/29 05:11:15;;;;;;;1999.90;999.90;;;10.70;99.90;;;;;;5075284;28;20025;-74
2024/01/29 05:13:42;;;;;;;1999.90;999.90;;;10.70;99.90;;;;;;5074921;28;20120;-74
2024/01/29 05:16:10;;;;;;;1999.90;999.90;;;10.70;99.90;;;;;;5075021;28;20025;-74
2024/01/29 05:18:36;;;;;;;1999.90;999.90;;;10.70;99.90;;;;;;5074670;28;20037;-74
2024/01/29 05:21:03;;;;;;;1999.90;999.90;;;10.70;99.90;;;;;;5074742;28;20032;-74
2024/01/29 05:23:28;;;;;;;1999.90;999.90;;;10.70;99.90;;;;;;5074866;28;20056;-75
2024/01/29 05:25:54;;;;;;;1999.90;999.90;;;10.80;99.90;;;;;;5074787;28;20060;-75
2024/01/29 05:28:21;;;;;;;1999.90;999.90;;;10.80;99.90;;;;;;5074551;28;20028;-74
2024/01/29 05:30:47;;;;;;;1999.90;999.90;;;10.80;99.90;;;;;;5073621;28;20472;-74
2024/01/29 05:33:13;;;;;;;1999.90;999.90;;;10.80;99.90;;;;;;5056422;28;20054;-74
2024/01/29 05:35:38;;;;;;;1999.90;999.90;;;10.80;99.90;;;;;;5074643;28;20063;-74
2024/01/29 05:38:04;;;;;;;1999.90;999.90;;;10.80;99.90;;;;;;5074352;28;20025;-74
2024/01/29 05:40:30;;;;;;;1999.90;999.90;;;10.90;99.90;;;;;;5074072;28;20090;-74
2024/01/29 05:42:56;;;;;;;1999.90;999.90;;;10.90;99.90;;;;;;5074350;28;20063;-74
2024/01/29 05:45:22;;;;;;;1999.90;999.90;;;10.90;99.90;;;;;;5074428;28;20056;-74
2024/01/29 05:47:48;;;;;;;1999.90;999.90;;;11.00;99.90;;;;;;5074068;28;20012;-74
2024/01/29 05:50:14;;;;;;;1999.90;999.90;;;11.00;99.90;;;;;;5073880;28;20031;-74
2024/01/29 05:52:40;;;;;;;1999.90;999.90;;;11.10;99.90;;;;;;5073829;28;20092;-74
2024/01/29 05:55:06;;;;;;;1999.90;999.90;;;11.30;99.90;;;;;;5074155;28;20111;-74
2024/01/29 05:57:31;;;;;;;1999.90;999.90;;;11.30;99.90;;;;;;5072890;28;20063;-72
2024/01/29 05:59:57;;;;;;;1999.90;999.90;;;11.30;99.90;;;;;;5073020;28;20060;-74
2024/01/29 06:02:23;;;;;;;1999.90;999.90;;;11.30;99.90;;;;;;5073389;28;20020;-73
2024/01/29 06:04:48;;;;;;;1999.90;999.90;;;11.40;99.90;;;;;;5073036;28;20500;-74
2024/01/29 06:07:14;;;;;;;1999.90;999.90;;;11.40;99.90;;;;;;5073744;28;20028;-72
2024/01/29 06:09:39;;;;;;;1999.90;999.90;;;11.40;99.90;;;;;;5073686;28;20100;-74
2024/01/29 06:12:05;;;;;;;1999.90;999.90;;;11.40;99.90;;;;;;5073713;28;20119;-73
2024/01/29 06:14:32;;;;;;;1999.90;999.90;;;11.40;99.90;;;;;;5073238;28;20056;-74
2024/01/29 06:16:58;;;;;;;1999.90;999.90;;;11.30;99.90;;;;;;5073380;28;20035;-74
2024/01/29 06:19:24;;;;;;;1999.90;999.90;;;11.30;99.90;;;;;;5073318;28;20119;-74
2024/01/29 06:21:50;;;;;;;1999.90;999.90;;;11.30;99.90;;;;;;5073294;28;20020;-74
2024/01/29 06:24:16;;;;;;;1999.90;999.90;;;11.30;99.90;;;;;;5073015;28;20048;-73
2024/01/29 06:26:42;;;;;;;1999.90;999.90;;;11.20;99.90;;;;;;5073120;28;20495;-74
2024/01/29 06:29:08;;;;;;;1999.90;999.90;;;11.20;99.90;;;;;;5073401;28;20032;-74
2024/01/29 06:31:39;;;;;;;1999.90;999.90;;;11.20;99.90;;;;;;5073023;28;20082;-74
2024/01/29 06:34:05;;;;;;;1999.90;999.90;;;11.10;99.90;;;;;;5055701;28;20025;-72
2024/01/29 06:36:31;;;;;;;1999.90;999.90;;;11.10;99.90;;;;;;5072149;28;20391;-72
2024/01/29 06:38:58;;;;;;;1999.90;999.90;;;11.10;99.90;;;;;;5070329;28;20028;-72
2024/01/29 06:41:24;;;;;;;1999.90;999.90;;;11.10;99.90;;;;;;5071583;28;20023;-72
2024/01/29 06:43:51;;;;;;;1999.90;999.90;;;11.10;99.90;;;;;;5072648;28;20032;-72
2024/01/29 06:46:17;;;;;;;1999.90;999.90;;;11.10;99.90;;;;;;5072159;28;20020;-72
2024/01/29 06:48:43;;;;;;;1999.90;999.90;;;11.10;99.90;;;;;;5072103;28;20462;-74
2024/01/29 06:51:08;;;;;;;1999.90;999.90;;;11.00;99.90;;;;;;5081981;28;20030;-72
2024/01/29 06:53:35;;;;;;;1999.90;999.90;;;11.00;99.90;;;;;;5084209;28;20074;-74
2024/01/29 06:56:04;;;;;;;1999.90;999.90;;;11.00;99.90;;;;;;5071784;28;20125;-72
2024/01/29 06:58:31;;;;;;;1999.90;999.90;;;11.00;99.90;;;;;;5071425;28;20032;-74
2024/01/29 07:00:59;;;;;;;1999.90;999.90;;;10.90;99.90;;;;;;5071476;28;20074;-74
2024/01/29 07:03:25;;;;;;;1999.90;999.90;;;10.90;99.90;;;;;;5071248;28;20032;-72
2024/01/29 07:05:51;;;;;;;1999.90;999.90;;;10.90;99.90;;;;;;5060869;28;20086;-73
2024/01/29 07:08:17;;;;;;;1999.90;999.90;;;11.00;99.90;;;;;;5083639;28;20028;-74
2024/01/29 07:10:44;;;;;;;1999.90;999.90;;;11.00;99.90;;;;;;5076830;28;20024;-72
2024/01/29 07:13:10;;;;;;;1999.90;999.90;;;11.00;99.90;;;;;;5091494;28;20032;-74
2024/01/29 07:15:36;;;;;;;1999.90;999.90;;;11.00;99.90;;;;;;5091876;28;20031;-73
2024/01/29 07:18:02;;;;;;;1999.90;999.90;;;10.90;99.90;;;;;;5068796;28;20036;-72
2024/01/29 07:20:29;;;;;;;1999.90;999.90;;;10.90;99.90;;;;;;5071495;28;20028;-73
2024/01/29 07:22:55;;;;;;;1999.90;999.90;;;10.90;99.90;;;;;;5071762;28;20498;-72
2024/01/29 07:25:21;;;;;;;1999.90;999.90;;;10.90;99.90;;;;;;5091996;28;20028;-73
2024/01/29 07:27:47;;;;;;;1999.90;999.90;;;10.90;99.90;;;;;;5076471;28;20036;-74
2024/01/29 07:30:14;;;;;;;1999.90;999.90;;;10.90;99.90;;;;;;5070948;28;20047;-72
2024/01/29 07:32:40;;;;;;;1999.90;999.90;;;10.90;99.90;;;;;;5064120;28;20021;-72
2024/01/29 07:35:07;;;;;;;1999.90;999.90;;;11.00;99.90;;;;;;5072700;28;20078;-72
2024/01/29 07:37:32;;;;;;;1999.90;999.90;;;10.90;99.90;;;;;;5068851;28;20025;-75
2024/01/29 07:39:58;;;;;;;1999.90;999.90;;;10.90;99.90;;;;;;5070459;28;20123;-74
2024/01/29 07:42:24;;;;;;;1999.90;999.90;;;10.90;99.90;;;;;;5070831;28;20025;-72
2024/01/29 07:44:51;;;;;;;1999.90;999.90;;;10.90;99.90;;;;;;5071586;28;20100;-72
2024/01/29 07:47:17;;;;;;;1999.90;999.90;;;10.90;99.90;;;;;;5071800;28;20585;-73
2024/01/29 07:49:42;;;;;;;1999.90;999.90;;;10.90;99.90;;;;;;5070758;28;20256;-72
2024/01/29 07:52:09;;;;;;;1999.90;999.90;;;10.80;99.90;;;;;;5073403;28;20112;-73
2024/01/29 07:54:35;;;;;;;1999.90;999.90;;;10.90;99.90;;;;;;5071083;28;20032;-73
2024/01/29 07:57:01;;;;;;;1999.90;999.90;;;10.90;99.90;;;;;;5066917;28;20060;-71
2024/01/29 07:59:27;;;;;;;1999.90;999.90;;;10.90;99.90;;;;;;5071376;28;20117;-72
2024/01/29 08:01:53;;;;;;;1999.90;999.90;;;11.00;99.90;;;;;;5070378;28;20048;-72
2024/01/29 08:04:18;;;;;;;1999.90;999.90;;;11.10;99.90;;;;;;5081680;28;20025;-73
2024/01/29 08:06:44;;;;;;;1999.90;999.90;;;11.20;99.90;;;;;;5070738;28;20045;-73
2024/01/29 08:09:10;;;;;;;1999.90;999.90;;;11.20;99.90;;;;;;5067805;28;20499;-72
2024/01/29 08:11:36;;;;;;;1999.90;999.90;;;11.30;99.90;;;;;;5069619;28;20036;-73
2024/01/29 08:14:02;;;;;;;1999.90;999.90;;;11.30;99.90;;;;;;5068548;28;20047;-73
2024/01/29 08:16:27;;;;;;;1999.90;999.90;;;11.30;99.90;;;;;;5074194;28;20028;-74
2024/01/29 08:18:53;;;;;;;1999.90;999.90;;;11.40;99.90;;;;;;5074434;28;20039;-74
2024/01/29 08:21:19;;;;;;;1999.90;999.90;;;11.40;99.90;;;;;;5074656;28;20042;-71
2024/01/29 08:23:44;;;;;;;1999.90;999.90;;;11.40;99.90;;;;;;5073923;28;20094;-75
2024/01/29 08:26:10;;;;;;;1999.90;999.90;;;11.50;99.90;;;;;;5074431;28;20058;-71
2024/01/29 08:28:36;;;;;;;1999.90;999.90;;;11.50;99.90;;;;;;5089889;28;20034;-71
2024/01/29 08:31:02;;;;;;;1999.90;999.90;;;11.60;99.90;;;;;;5094081;28;20450;-72
2024/01/29 08:33:28;;;;;;;1999.90;999.90;;;11.60;99.90;;;;;;5080502;28;20027;-72
2024/01/29 08:35:55;;;;;;;1999.90;999.90;;;11.70;99.90;;;;;;5074164;28;20048;-73
2024/01/29 08:38:20;;;;;;;1999.90;999.90;;;11.80;99.90;;;;;;5077485;28;20506;-75
2024/01/29 08:40:46;;;;;;;1999.90;999.90;;;12.10;99.90;;;;;;5083438;28;20032;-72
2024/01/29 08:43:12;;;;;;;1999.90;999.90;;;12.30;99.90;;;;;;5074299;28;20067;-75
2024/01/29 08:45:38;;;;;;;1999.90;999.90;;;13.10;99.90;;;;;;5073862;28;20038;-75
2024/01/29 08:48:10;;;;;;;1999.90;999.90;;;13.20;99.90;;;;;;5069231;28;20128;-74
2024/01/29 08:50:35;;;;;;;1999.90;999.90;;;13.20;99.90;;;;;;5021488;28;20036;-71
2024/01/29 08:53:03;;;;;;;1999.90;999.90;;;12.90;99.90;;;;;;5080389;28;20108;-71
2024/01/29 08:55:30;;;;;;;1999.90;999.90;;;12.10;99.90;;;;;;5074080;28;20141;-74
2024/01/29 08:57:55;;;;;;;1999.90;999.90;;;11.80;99.90;;;;;;5070810;28;20028;-74
2024/01/29 09:00:21;;;;;;;1999.90;999.90;;;11.70;99.90;;;;;;5072416;28;20545;-74
2024/01/29 09:02:48;;;;;;;1999.90;999.90;;;11.60;99.90;;;;;;5072080;28;20036;-71
2024/01/29 09:05:14;;;;;;;1999.90;999.90;;;11.60;99.90;;;;;;5073581;28;20507;-72
2024/01/29 09:07:40;;;;;;;1999.90;999.90;;;11.60;99.90;;;;;;5075309;28;20026;-72
2024/01/29 09:10:06;;;;;;;1999.90;999.90;;;11.70;99.90;;;;;;5073003;28;20021;-75
2024/01/29 09:12:32;;;;;;;1999.90;999.90;;;11.70;99.90;;;;;;5086999;28;20032;-76
2024/01/29 09:14:57;;;;;;;1999.90;999.90;;;11.70;99.90;;;;;;5093552;28;20078;-78
2024/01/29 09:17:23;;;;;;;1999.90;999.90;;;11.70;99.90;;;;;;5080476;28;20402;-72
2024/01/29 09:19:51;;;;;;;1999.90;999.90;;;11.70;99.90;;;;;;5077909;28;20029;-75
2024/01/29 09:22:17;;;;;;;1999.90;999.90;;;11.70;99.90;;;;;;5073868;28;20020;-74
2024/01/29 09:24:43;;;;;;;1999.90;999.90;;;11.80;99.90;;;;;;5084798;28;20035;-75
2024/01/29 09:27:09;;;;;;;1999.90;999.90;;;11.80;99.90;;;;;;5071177;28;20040;-73
2024/01/29 09:29:35;;;;;;;1999.90;999.90;;;11.80;99.90;;;;;;5092748;28;20024;-73
2024/01/29 09:32:00;;;;;;;1999.90;999.90;;;11.70;99.90;;;;;;5073008;28;20028;-72
2024/01/29 09:34:27;;;;;;;1999.90;999.90;;;11.70;99.90;;;;;;5072300;28;20391;-75
2024/01/29 09:36:53;;;;;;;1999.90;999.90;;;11.90;99.90;;;;;;5081427;28;20032;-73
2024/01/29 09:39:19;;;;;;;1999.90;999.90;;;11.90;99.90;;;;;;5080685;28;20585;-72
2024/01/29 09:41:46;;;;;;;1999.90;999.90;;;11.90;99.90;;;;;;5077817;28;20100;-72
2024/01/29 09:44:12;;;;;;;1999.90;999.90;;;11.90;99.90;;;;;;5071205;28;20375;-72
2024/01/29 09:46:40;;;;;;;1999.90;999.90;;;11.90;99.90;;;;;;5070447;28;20017;-72
2024/01/29 09:49:07;;;;;;;1999.90;999.90;;;12.00;99.90;;;;;;5070533;28;20032;-72
2024/01/29 09:51:33;;;;;;;1999.90;999.90;;;12.10;99.90;;;;;;5071055;28;20031;-72
2024/01/29 09:54:03;;;;;;;1999.90;999.90;;;12.10;99.90;;;;;;5070162;28;20494;-72
2024/01/29 09:56:29;;;;;;;1999.90;999.90;;;12.10;99.90;;;;;;5066082;28;20021;-70
2024/01/29 09:58:55;;;;;;;1999.90;999.90;;;12.10;99.90;;;;;;5070953;28;20502;-71
2024/01/29 10:01:23;;;;;;;1999.90;999.90;;;12.20;99.90;;;;;;5074879;28;20028;-75
2024/01/29 10:03:49;;;;;;;1999.90;999.90;;;12.10;99.90;;;;;;5069473;28;20037;-75
2024/01/29 10:06:15;;;;;;;1999.90;999.90;;;12.20;99.90;;;;;;5072935;28;20040;-75
2024/01/29 10:08:42;;;;;;;1999.90;999.90;;;12.30;99.90;;;;;;5071188;28;20078;-71
2024/01/29 10:11:08;;;;;;;1999.90;999.90;;;12.30;99.90;;;;;;5066936;28;20182;-74
2024/01/29 10:13:34;;;;;;;1999.90;999.90;;;12.30;99.90;;;;;;5073522;28;20142;-76
2024/01/29 10:16:00;;;;;;;1999.90;999.90;;;12.40;99.90;;;;;;5075486;28;20024;-76
2024/01/29 10:18:26;;;;;;;1999.90;999.90;;;12.60;99.90;;;;;;5072547;28;20044;-72
2024/01/29 10:21:05;;;;;;;1999.90;999.90;;;12.70;99.90;;;;;;5081644;28;20116;-75
2024/01/29 10:23:31;;;;;;;1999.90;999.90;;;12.80;99.90;;;;;;5075722;28;20033;-71
2024/01/29 10:25:59;;;;;;;1999.90;999.90;;;12.80;99.90;;;;;;5077856;28;20115;-75
2024/01/29 10:28:26;;;;;;;1999.90;999.90;;;12.90;99.90;;;;;;5087831;28;20024;-75
2024/01/29 10:30:54;;;;;;;1999.90;999.90;;;13.00;99.90;;;;;;5082286;28;20035;-78
2024/01/29 10:33:21;;;;;;;1999.90;999.90;;;13.00;99.90;;;;;;5083643;28;20020;-76
2024/01/29 10:35:47;;;;;;;1999.90;999.90;;;13.00;99.90;;;;;;5076073;28;20039;-78
2024/01/29 10:38:16;;;;;;;1999.90;999.90;;;13.00;99.90;;;;;;5079358;28;20032;-73
2024/01/29 10:40:43;;;;;;;1999.90;999.90;;;13.00;99.90;;;;;;5071204;28;20689;-75
2024/01/29 10:43:20;;;;;;;1999.90;999.90;;;13.10;99.90;;;;;;5080548;28;20038;-77
2024/01/29 10:45:53;;;;;;;1999.90;999.90;;;13.20;99.90;;;;;;5072293;28;20391;-73
2024/01/29 10:48:23;;;;;;;1999.90;999.90;;;13.00;99.90;;;;;;5074485;28;20039;-78
2024/01/29 10:50:51;;;;;;;1999.90;999.90;;;13.10;99.90;;;;;;5083054;28;20024;-73
2024/01/29 10:53:18;;;;;;;1999.90;999.90;;;13.20;99.90;;;;;;5079388;28;20093;-77
2024/01/29 10:55:44;;;;;;;1999.90;999.90;;;13.30;99.90;;;;;;5077652;28;20036;-79
2024/01/29 10:58:12;;;;;;;1999.90;999.90;;;13.30;99.90;;;;;;5076451;28;20051;-73
2024/01/29 11:00:41;;;;;;;1999.90;999.90;;;13.30;99.90;;;;;;5079850;28;20051;-71
2024/01/29 11:03:09;;;;;;;1999.90;999.90;;;13.40;99.90;;;;;;5077286;28;20122;-71
2024/01/29 11:05:36;;;;;;;1999.90;999.90;;;13.40;99.90;;;;;;5076492;28;20044;-83
2024/01/29 11:08:04;;;;;;;1999.90;999.90;;;13.40;99.90;;;;;;5081410;28;20028;-81
2024/01/29 11:10:31;;;;;;;1999.90;999.90;;;13.50;99.90;;;;;;5081710;28;20016;-70
2024/01/29 11:12:59;;;;;;;1999.90;999.90;;;13.50;99.90;;;;;;5081082;28;20398;-69
2024/01/29 11:15:25;;;;;;;1999.90;999.90;;;13.60;99.90;;;;;;5073396;28;20040;-70
2024/01/29 11:17:51;;;;;;;1999.90;999.90;;;13.60;99.90;;;;;;5077821;28;20033;-71
2024/01/29 11:20:20;;;;;;;1999.90;999.90;;;13.80;99.90;;;;;;5087015;28;20101;-85
2024/01/29 11:22:57;;;;;;;1999.90;999.90;;;13.80;99.90;;;;;;5077202;28;20178;-79
2024/01/29 11:25:24;;;;;;;1999.90;999.90;;;13.70;99.90;;;;;;5086360;28;20423;-83
2024/01/29 11:27:50;;;;;;;1999.90;999.90;;;13.80;99.90;;;;;;5084326;28;20032;-70
2024/01/29 11:30:20;;;;;;;1999.90;999.90;;;13.90;99.90;;;;;;5074138;28;20442;-69
2024/01/29 11:32:51;;;;;;;1999.90;999.90;;;13.90;99.90;;;;;;5082795;28;20036;-83
2024/01/29 11:35:23;;;;;;;1999.90;999.90;;;13.90;99.90;;;;;;5077873;28;20025;-82
2024/01/29 11:37:54;;;;;;;1999.90;999.90;;;14.00;99.90;;;;;;5086121;28;20089;-71
2024/01/29 11:40:38;;;;;;;1999.90;999.90;;;13.90;99.90;;;;;;5075181;28;20047;-70
2024/01/29 11:43:18;;;;;;;1999.90;999.90;;;13.80;99.90;;;;;;5077739;28;20044;-70
2024/01/29 11:45:52;;;;;;;1999.90;999.90;;;13.80;99.90;;;;;;5084097;28;20020;-70
2024/01/29 11:48:20;;;;;;;1999.90;999.90;;;13.70;99.90;;;;;;5070391;28;20064;-70
2024/01/29 11:50:51;;;;;;;1999.90;999.90;;;13.90;99.90;;;;;;5082597;28;20040;-70
2024/01/29 11:53:23;;;;;;;1999.90;999.90;;;13.90;99.90;;;;;;5079673;28;20024;-83
2024/01/29 11:55:49;;;;;;;1999.90;999.90;;;13.90;99.90;;;;;;5075597;28;20028;-70